Terminal Aerodrome Forecast
Issued by NWS

Home | Current Version | Previous Version | Text Only | Print | Product List | Glossary On
Versions: 1 2 3 4 5 6 7 8 9 10 11 12 13 14
000
FTUS42 TJSJ 252320
TAFIST
TAF
TIST 252320Z 2600/2624 07013KT P6SM VCSH FEW025 BKN040 BKN100
      TEMPO 2602/2604 5SM TSRA SCT025CB BKN040 BKN060
     FM261300 11013KT P6SM VCTS SCT025CB SCT060
     FM262200 09010KT P6SM VCSH SCT025 BKN060=

USA.gov is the U.S. government's official web portal to all federal, state and local government web resources and services.